Terminal Aerodrome Forecast
Issued by NWS

Home | Current Version | Previous Version | Text Only | Print | Product List | Glossary On
Versions: 1 2 3 4 5 6 7 8 9 10 11 12 13 14 15 16 17 18 19 20
000
FTUS46 KSEW 251100
TAFBFI
TAF
KBFI 251120Z 2512/2612 18003KT P6SM BKN013 OVC027
     FM251500 18005KT P6SM OVC025
     FM252000 18004KT P6SM SCT030 OVC050=

USA.gov is the U.S. government's official web portal to all federal, state and local government web resources and services.